首页
METAR-TAF:

METAR-TAF

机场 :

Ankeny Regional Airport

Ankeny, 艾奥瓦州, 美国

纬度: 41-41-24N, 经度: 093-33-57W, 海拔: 275米

当前天气观测

该预报发布于19分钟前的14:55 UTC
风速4节,风向西
温度 -17°C
湿度 84%
气压 1039 hPa
能見度: 12.9公里
阴天层高于1000英尺

METAR: KIKV 201455Z AUTO 28004KT 8SM OVC010 M17/M19 A3068 RMK AO2

时间: 09:14 (15:14 UTC)


TAF: 丢失

超过4000个机场的气象观测和天气预报(METAR&TAF报告)。

可查询的气象台以黄色和红色小点在地图上表示。

将鼠标移到小点上方,可查看气象台名称。

然后点击查看天气观测和预报。

如需切换地图:点击带黑十字的绿色按钮放大地图;点击带横线的绿色按钮缩小地图;或者点击绿色箭头查看邻近地区的地图。


METAR-TAF: